Time;durP1;ratioP1;P1;durP2;ratioP2;P2;SDS_P1;SDS_P2;PMS_P1;PMS_P2;Temp;Humidity;BMP_temperature;BMP_pressure;BME280_temperature;BME280_humidity;BME280_pressure;Samples;Min_cycle;Max_cycle;Signal;HPM_P1;HPM_P2
2020/12/05 00:00:01;;;;;;;7.32;1.10;;;;;;;6.32;81.22;98175.94;5085779;28;20047;-54
2020/12/05 00:02:27;;;;;;;3.03;0.90;;;;;;;6.32;81.10;98168.50;5085605;28;20079;-53
2020/12/05 00:04:54;;;;;;;2.80;1.05;;;;;;;6.33;80.87;98186.53;5093888;28;20481;-52
2020/12/05 00:07:20;;;;;;;4.38;0.40;;;;;;;6.33;81.00;98194.03;5093392;28;20048;-54
2020/12/05 00:09:46;;;;;;;4.25;1.05;;;;;;;6.33;80.98;98194.78;5095453;28;20512;-49
2020/12/05 00:12:15;;;;;;;9.23;2.05;;;;;;;6.34;80.81;98192.84;5075872;28;20074;-52
2020/12/05 00:14:53;;;;;;;3.35;0.73;;;;;;;6.33;80.86;98192.03;5076153;28;20055;-52
2020/12/05 00:17:20;;;;;;;6.68;1.58;;;;;;;6.36;80.62;98198.72;5075936;28;20094;-50
2020/12/05 00:19:46;;;;;;;4.72;1.75;;;;;;;6.33;80.67;98194.78;5083255;28;20044;-50
2020/12/05 00:22:16;;;;;;;7.65;1.40;;;;;;;6.32;80.79;98201.47;5095599;28;20039;-51
2020/12/05 00:24:43;;;;;;;3.78;1.20;;;;;;;6.32;80.90;98222.66;5094350;28;20036;-51
2020/12/05 00:27:09;;;;;;;2.42;0.70;;;;;;;6.32;80.47;98203.41;5077693;28;20040;-49
2020/12/05 00:29:35;;;;;;;5.47;1.10;;;;;;;6.33;80.37;98221.50;5075676;28;20072;-52
2020/12/05 00:32:06;;;;;;;2.78;1.00;;;;;;;6.32;80.71;98219.91;5094691;28;20085;-52
2020/12/05 00:34:32;;;;;;;4.93;1.02;;;;;;;6.31;80.40;98223.81;5095269;28;20033;-52
2020/12/05 00:36:59;;;;;;;2.70;1.05;;;;;;;6.29;80.37;98224.19;5094891;28;20055;-51
2020/12/05 00:39:25;;;;;;;3.03;1.10;;;;;;;6.29;80.26;98226.94;5070193;28;20047;-52
2020/12/05 00:41:54;;;;;;;2.17;1.15;;;;;;;6.30;80.38;98233.25;5091457;28;20055;-54
2020/12/05 00:44:20;;;;;;;7.00;1.38;;;;;;;6.30;80.50;98234.00;5079356;28;20040;-53
2020/12/05 00:46:47;;;;;;;3.88;1.33;;;;;;;6.30;80.40;98238.72;5094838;28;20051;-53
2020/12/05 00:49:13;;;;;;;3.83;0.82;;;;;;;6.29;80.44;98242.63;5094908;28;20449;-52
2020/12/05 00:51:39;;;;;;;3.42;0.90;;;;;;;6.28;80.70;98241.03;5094762;28;20397;-54
2020/12/05 00:54:06;;;;;;;1.80;0.60;;;;;;;6.28;80.54;98246.53;5093193;28;20410;-54
2020/12/05 00:56:32;;;;;;;6.72;0.82;;;;;;;6.28;80.24;98258.31;5092416;28;20489;-51
2020/12/05 00:58:58;;;;;;;2.08;0.65;;;;;;;6.28;80.67;98257.53;5094410;28;20134;-53
2020/12/05 01:01:25;;;;;;;1.23;0.70;;;;;;;6.27;80.64;98267.75;5092461;28;20044;-53
2020/12/05 01:03:51;;;;;;;5.40;0.70;;;;;;;6.25;80.62;98258.31;5068251;28;20434;-56
2020/12/05 01:06:20;;;;;;;3.13;2.05;;;;;;;6.23;80.52;98269.66;5083775;28;20372;-54
2020/12/05 01:08:48;;;;;;;4.43;1.40;;;;;;;6.23;80.36;98277.09;5078642;28;20029;-53
2020/12/05 01:11:17;;;;;;;4.53;1.30;;;;;;;6.22;80.33;98272.78;5091712;28;20467;-55
2020/12/05 01:13:43;;;;;;;4.25;1.02;;;;;;;6.20;80.19;98275.09;5094722;28;20131;-53
2020/12/05 01:16:14;;;;;;;2.42;0.93;;;;;;;6.12;80.34;98272.28;5087834;28;20127;-52
2020/12/05 01:18:41;;;;;;;4.45;0.73;;;;;;;6.08;80.48;98281.66;5085799;28;20079;-51
2020/12/05 01:21:11;;;;;;;3.58;0.90;;;;;;;6.04;80.57;98278.06;5086332;28;20044;-53
2020/12/05 01:23:41;;;;;;;3.83;1.08;;;;;;;6.01;80.15;98281.59;5093358;28;20205;-51
2020/12/05 01:26:11;;;;;;;5.57;1.42;;;;;;;5.99;80.30;98281.16;5075940;28;20066;-53
2020/12/05 01:28:37;;;;;;;5.75;1.00;;;;;;;5.97;80.30;98281.53;5089973;28;20158;-53
2020/12/05 01:31:05;;;;;;;3.10;0.75;;;;;;;5.95;80.30;98283.88;5092953;28;20109;-50
2020/12/05 01:33:32;;;;;;;1.27;0.82;;;;;;;5.95;80.23;98283.09;5083477;28;20068;-55
2020/12/05 01:35:59;;;;;;;5.68;1.10;;;;;;;5.90;79.93;98286.97;5055514;28;20688;-49
2020/12/05 01:38:25;;;;;;;2.58;0.60;;;;;;;5.90;79.86;98291.66;5087851;28;20067;-53
2020/12/05 01:41:00;;;;;;;13.90;2.45;;;;;;;5.91;79.73;98298.72;5069492;28;20130;-57
2020/12/05 01:43:28;;;;;;;3.28;0.57;;;;;;;5.92;79.84;98286.56;5083866;28;20068;-50
2020/12/05 01:45:58;;;;;;;2.88;1.10;;;;;;;5.90;79.74;98299.91;5091970;28;20050;-49
2020/12/05 01:48:25;;;;;;;6.93;1.15;;;;;;;5.89;79.62;98307.34;5087435;28;20040;-50
2020/12/05 01:50:54;;;;;;;8.05;3.45;;;;;;;5.92;79.80;98294.81;5073054;28;20119;-52
2020/12/05 01:53:21;;;;;;;4.93;0.90;;;;;;;5.91;79.73;98305.00;5072642;28;20036;-52
2020/12/05 01:55:49;;;;;;;4.20;0.80;;;;;;;5.90;79.64;98305.38;5093312;28;20040;-53
2020/12/05 01:58:16;;;;;;;1.80;0.93;;;;;;;5.91;79.85;98310.50;5092580;28;20123;-49
2020/12/05 02:00:43;;;;;;;2.35;0.65;;;;;;;5.97;79.59;98317.25;5090401;28;20477;-52
2020/12/05 02:03:13;;;;;;;2.85;0.30;;;;;;;6.02;79.43;98318.88;5093291;28;20493;-52
2020/12/05 02:06:08;;;;;;;2.30;1.38;;;;;;;6.05;79.55;98327.16;5092058;28;20115;-52
2020/12/05 02:08:48;;;;;;;9.00;1.33;;;;;;;6.12;78.88;98319.00;5070114;28;20114;-51
2020/12/05 02:11:19;;;;;;;6.15;1.88;;;;;;;6.10;78.68;98329.56;5086486;28;20450;-49
2020/12/05 02:13:47;;;;;;;6.70;1.02;;;;;;;6.10;78.71;98326.03;5094313;28;20110;-49
2020/12/05 02:16:15;;;;;;;3.10;0.80;;;;;;;6.07;78.62;98332.25;5072686;28;20048;-52
2020/12/05 02:18:45;;;;;;;7.03;0.98;;;;;;;6.06;78.72;98338.94;5091831;28;20067;-50
2020/12/05 02:21:14;;;;;;;3.15;0.80;;;;;;;6.03;78.76;98345.19;5090473;28;20087;-49
2020/12/05 02:23:43;;;;;;;8.35;1.33;;;;;;;5.97;78.94;98347.47;5074577;28;20036;-51
2020/12/05 02:26:10;;;;;;;1.77;0.90;;;;;;;5.94;78.80;98342.69;5084471;28;20048;-48
2020/12/05 02:28:36;;;;;;;2.95;0.63;;;;;;;5.94;78.94;98347.41;5072772;28;20079;-49
2020/12/05 02:31:02;;;;;;;4.57;0.70;;;;;;;5.94;78.67;98342.69;5072264;28;20119;-51
2020/12/05 02:33:29;;;;;;;8.63;1.55;;;;;;;5.94;78.76;98347.41;5085226;28;20094;-52
2020/12/05 02:35:56;;;;;;;3.17;0.40;;;;;;;5.90;78.63;98352.88;5083423;28;20093;-48
2020/12/05 02:38:47;;;;;;;1.30;0.60;;;;;;;5.91;78.62;98353.63;5082949;28;20128;-49
2020/12/05 02:41:13;;;;;;;3.53;0.50;;;;;;;5.92;78.67;98356.03;5086842;28;20127;-52
2020/12/05 02:43:40;;;;;;;3.17;0.60;;;;;;;5.94;78.68;98356.44;5091841;28;20071;-50
2020/12/05 02:46:06;;;;;;;2.90;0.40;;;;;;;5.99;78.67;98369.03;5087320;28;20079;-52
2020/12/05 02:48:33;;;;;;;5.70;0.88;;;;;;;6.00;78.89;98373.38;5091126;28;20525;-49
2020/12/05 02:50:59;;;;;;;2.65;0.40;;;;;;;6.00;79.01;98370.63;5091856;28;20129;-48
2020/12/05 02:53:25;;;;;;;6.68;1.35;;;;;;;5.99;78.84;98388.25;5088886;28;20514;-52
2020/12/05 02:55:52;;;;;;;5.22;0.70;;;;;;;6.00;78.78;98392.59;5082618;28;20044;-50
2020/12/05 02:58:18;;;;;;;2.85;0.70;;;;;;;6.00;79.04;98398.09;5075334;28;20098;-49
2020/12/05 03:00:45;;;;;;;9.43;1.00;;;;;;;6.01;79.21;98396.94;5073062;28;20040;-51
2020/12/05 03:03:11;;;;;;;3.15;0.60;;;;;;;6.01;79.22;98389.47;5084035;28;20086;-49
2020/12/05 03:05:37;;;;;;;4.68;2.88;;;;;;;6.03;79.11;98405.59;5074463;28;20075;-50
2020/12/05 03:08:04;;;;;;;2.92;0.60;;;;;;;6.04;78.97;98412.66;5078601;28;20044;-50
2020/12/05 03:10:30;;;;;;;7.15;1.10;;;;;;;6.04;79.08;98388.72;5080778;28;20139;-48
2020/12/05 03:12:56;;;;;;;5.30;0.60;;;;;;;6.06;78.94;98405.63;5071063;28;20080;-51
2020/12/05 03:15:22;;;;;;;3.42;0.50;;;;;;;6.09;79.00;98410.38;5069875;28;20098;-48
2020/12/05 03:17:48;;;;;;;2.78;0.70;;;;;;;6.10;79.11;98402.94;5070128;28;20049;-53
2020/12/05 03:20:16;;;;;;;3.88;1.40;;;;;;;6.13;79.14;98407.69;5065707;28;20037;-50
2020/12/05 03:22:42;;;;;;;1.70;0.50;;;;;;;6.12;78.96;98415.13;5072348;28;20067;-52
2020/12/05 03:25:09;;;;;;;1.77;0.47;;;;;;;6.14;79.10;98417.53;5070840;28;20049;-48
2020/12/05 03:27:35;;;;;;;2.25;0.30;;;;;;;6.13;79.02;98404.94;5069802;28;20072;-49
2020/12/05 03:30:03;;;;;;;4.47;0.82;;;;;;;6.14;79.03;98412.03;5072047;28;20079;-49
2020/12/05 03:32:31;;;;;;;1.08;0.40;;;;;;;6.14;79.03;98412.03;5071998;28;20049;-48
2020/12/05 03:35:00;;;;;;;3.45;0.45;;;;;;;6.13;78.96;98413.19;5068912;28;20029;-52
2020/12/05 03:37:27;;;;;;;5.90;1.02;;;;;;;6.13;79.05;98416.72;5070803;28;20059;-48
2020/12/05 03:39:53;;;;;;;5.50;1.20;;;;;;;6.14;78.95;98417.53;5069638;28;20040;-56
2020/12/05 03:42:20;;;;;;;2.33;0.40;;;;;;;6.13;79.00;98435.97;5070792;28;20037;-50
2020/12/05 03:44:46;;;;;;;3.50;0.73;;;;;;;6.12;78.84;98436.31;5071227;28;20045;-52
2020/12/05 03:47:13;;;;;;;5.60;0.70;;;;;;;6.08;78.92;98435.47;5070983;28;20085;-53
2020/12/05 03:49:39;;;;;;;4.55;0.73;;;;;;;6.05;78.93;98447.22;5070029;28;20048;-51
2020/12/05 03:52:05;;;;;;;3.72;1.27;;;;;;;6.05;78.98;98436.22;5070308;28;20068;-53
2020/12/05 03:54:32;;;;;;;5.93;0.63;;;;;;;6.04;79.18;98434.63;5073848;28;20044;-50
2020/12/05 03:56:59;;;;;;;2.72;0.65;;;;;;;6.03;79.14;98449.53;5071662;28;20037;-51
2020/12/05 03:59:25;;;;;;;3.33;0.50;;;;;;;6.01;78.84;98454.63;5075115;28;20048;-51
2020/12/05 04:01:52;;;;;;;3.70;0.50;;;;;;;5.97;78.92;98464.75;5075514;28;20052;-50
2020/12/05 04:04:19;;;;;;;5.30;0.60;;;;;;;5.93;78.96;98472.16;5074976;28;20098;-52
2020/12/05 04:06:45;;;;;;;2.53;0.38;;;;;;;5.88;79.25;98481.47;5075643;28;20122;-52
2020/12/05 04:09:11;;;;;;;2.40;0.77;;;;;;;5.86;79.24;98477.53;5068148;28;20076;-52
2020/12/05 04:11:38;;;;;;;4.38;0.43;;;;;;;5.86;79.48;98491.25;5065416;28;20067;-53
2020/12/05 04:14:06;;;;;;;2.63;0.73;;;;;;;5.87;79.45;98490.09;5077603;28;20428;-53
2020/12/05 04:16:33;;;;;;;2.60;0.50;;;;;;;5.88;79.42;98480.69;5085500;28;20044;-49
2020/12/05 04:18:59;;;;;;;2.33;0.70;;;;;;;5.89;79.52;98496.81;5093964;28;20098;-54
2020/12/05 04:21:26;;;;;;;3.22;0.70;;;;;;;5.92;79.43;98478.81;5095322;28;20044;-53
2020/12/05 04:23:53;;;;;;;1.48;0.50;;;;;;;5.95;79.35;98502.78;5080023;28;20036;-52
2020/12/05 04:26:21;;;;;;;5.45;0.85;;;;;;;5.96;79.10;98502.41;5083368;28;20050;-50
2020/12/05 04:28:48;;;;;;;2.15;0.60;;;;;;;5.99;79.14;98498.13;5078106;28;20565;-51
2020/12/05 04:31:14;;;;;;;1.60;0.20;;;;;;;5.98;79.11;98496.56;5083276;28;20041;-50
2020/12/05 04:33:41;;;;;;;0.85;0.40;;;;;;;5.95;78.97;98509.06;5075821;28;20140;-51
2020/12/05 04:36:07;;;;;;;2.33;0.43;;;;;;;5.94;78.72;98510.22;5087760;28;20079;-51
2020/12/05 04:38:34;;;;;;;8.93;0.50;;;;;;;5.93;79.12;98508.63;5079434;28;20066;-50
2020/12/05 04:41:01;;;;;;;3.13;0.43;;;;;;;5.95;78.90;98502.78;5094064;28;20036;-49
2020/12/05 04:43:28;;;;;;;3.30;0.60;;;;;;;5.97;79.36;98522.41;5096095;28;20051;-53
2020/12/05 04:45:56;;;;;;;6.45;0.80;;;;;;;5.95;79.01;98516.50;5094423;28;20090;-53
2020/12/05 04:48:29;;;;;;;1.30;0.43;;;;;;;5.93;79.08;98516.09;5093974;28;20032;-51
2020/12/05 04:51:00;;;;;;;0.55;0.20;;;;;;;5.89;79.00;98512.47;5091650;28;20040;-51
2020/12/05 04:53:27;;;;;;;0.63;0.30;;;;;;;5.88;78.98;98521.88;5094333;28;20055;-54
2020/12/05 04:55:57;;;;;;;3.25;0.47;;;;;;;5.84;79.15;98523.75;5094811;28;20126;-50
2020/12/05 04:58:24;;;;;;;1.55;1.23;;;;;;;5.83;79.14;98527.66;5081970;28;20131;-52
2020/12/05 05:00:53;;;;;;;2.45;0.50;;;;;;;5.83;79.16;98527.66;5079285;28;20036;-50
2020/12/05 05:03:22;;;;;;;1.75;0.30;;;;;;;5.80;79.23;98533.91;5091120;28;20444;-49
2020/12/05 05:05:52;;;;;;;2.88;0.50;;;;;;;5.78;78.83;98547.19;5089764;28;20478;-51
2020/12/05 05:08:18;;;;;;;0.60;0.30;;;;;;;5.78;78.86;98552.66;5094605;28;20493;-53
2020/12/05 05:10:45;;;;;;;1.88;0.43;;;;;;;5.76;78.92;98538.53;5081263;28;20093;-51
2020/12/05 05:13:19;;;;;;;2.53;0.80;;;;;;;5.78;78.99;98544.44;5093938;28;20082;-51
2020/12/05 05:15:46;;;;;;;1.85;0.20;;;;;;;5.76;79.04;98550.31;5094376;28;20043;-52
2020/12/05 05:18:13;;;;;;;1.20;0.45;;;;;;;5.78;78.96;98560.91;5093659;28;20040;-52
2020/12/05 05:20:44;;;;;;;3.30;1.15;;;;;;;5.80;78.79;98575.09;5090196;28;20084;-54
2020/12/05 05:23:16;;;;;;;3.70;0.32;;;;;;;5.81;78.42;98566.47;5085648;28;20072;-51
2020/12/05 05:26:08;;;;;;;1.67;0.43;;;;;;;5.83;78.29;98574.31;5092973;28;20040;-52
2020/12/05 05:28:39;;;;;;;0.43;0.20;;;;;;;5.84;78.57;98579.47;5073923;28;20598;-51
2020/12/05 05:31:22;;;;;;;1.03;0.40;;;;;;;5.84;78.48;98590.44;5078898;28;20048;-50
2020/12/05 05:33:52;;;;;;;6.60;1.45;;;;;;;5.87;78.44;98583.47;5088102;28;20059;-53
2020/12/05 05:36:23;;;;;;;0.90;0.38;;;;;;;5.88;78.54;98579.53;5086289;28;20071;-51
2020/12/05 05:38:57;;;;;;;2.00;0.32;;;;;;;5.89;78.45;98592.91;5094705;28;20058;-51
2020/12/05 05:41:24;;;;;;;2.42;0.20;;;;;;;5.87;78.27;98589.75;5092447;28;20451;-49
2020/12/05 05:44:01;;;;;;;2.72;0.57;;;;;;;5.86;78.08;98587.34;5075781;28;20052;-49
2020/12/05 05:46:30;;;;;;;4.13;0.75;;;;;;;5.85;78.41;98599.53;5092002;28;20493;-52
2020/12/05 05:48:58;;;;;;;1.15;0.40;;;;;;;5.84;78.27;98608.88;5086283;28;20040;-51
2020/12/05 05:51:37;;;;;;;1.73;0.50;;;;;;;5.79;77.91;98596.25;5086125;28;20044;-54
2020/12/05 05:54:19;;;;;;;0.60;0.25;;;;;;;5.78;78.21;98618.56;5091023;28;20056;-51
2020/12/05 05:56:57;;;;;;;2.90;0.20;;;;;;;5.78;78.37;98615.81;5071474;28;20067;-50
2020/12/05 05:59:25;;;;;;;3.00;0.30;;;;;;;5.80;78.66;98624.50;5081997;28;20067;-51
2020/12/05 06:01:53;;;;;;;1.95;0.50;;;;;;;5.77;78.31;98627.97;5073109;28;20115;-51
2020/12/05 06:04:51;;;;;;;1.15;0.40;;;;;;;5.74;78.17;98621.25;5091931;28;20115;-52
2020/12/05 06:07:24;;;;;;;3.05;0.43;;;;;;;5.71;78.54;98635.72;5047676;28;20071;-49
2020/12/05 06:09:51;;;;;;;;;;;;;;;5.67;78.56;98634.03;5094503;28;20036;-48
2020/12/05 06:12:25;;;;;;;2.42;0.40;;;;;;;5.65;78.47;98642.66;5079872;28;19966;-50
2020/12/05 06:14:55;;;;;;;0.82;0.30;;;;;;;5.64;78.46;98646.53;5077834;28;20417;-51
2020/12/05 06:17:25;;;;;;;2.03;0.90;;;;;;;5.64;78.58;98659.50;5079837;28;20047;-48
2020/12/05 06:19:56;;;;;;;2.95;0.40;;;;;;;5.62;78.52;98657.09;5078367;28;20139;-49
2020/12/05 06:22:50;;;;;;;2.17;0.40;;;;;;;5.65;78.51;98655.56;5078138;28;20039;-50
2020/12/05 06:25:21;;;;;;;5.72;0.45;;;;;;;5.65;78.62;98666.56;5091696;28;20494;-51
2020/12/05 06:28:01;;;;;;;1.30;0.30;;;;;;;5.64;78.52;98659.50;5093787;28;20123;-48
2020/12/05 06:30:28;;;;;;;4.90;0.75;;;;;;;5.65;78.59;98672.03;5081194;28;20036;-50
2020/12/05 06:32:55;;;;;;;5.40;0.50;;;;;;;5.65;78.56;98666.56;5084452;28;20123;-48
2020/12/05 06:35:21;;;;;;;1.58;0.40;;;;;;;5.67;78.58;98661.50;5088678;28;20063;-48
2020/12/05 06:37:52;;;;;;;1.63;0.82;;;;;;;5.68;78.45;98663.88;5073006;28;20044;-49
2020/12/05 06:40:19;;;;;;;0.55;0.40;;;;;;;5.69;78.52;98670.19;5084005;28;20442;-49
2020/12/05 06:42:48;;;;;;;1.95;0.40;;;;;;;5.68;78.60;98677.63;5081248;28;20036;-50
2020/12/05 06:45:27;;;;;;;4.43;1.42;;;;;;;5.67;78.54;98675.22;5069206;28;20052;-52
2020/12/05 06:48:17;;;;;;;1.88;1.15;;;;;;;5.62;78.23;98683.75;5092336;28;20067;-49
2020/12/05 06:50:47;;;;;;;1.77;0.50;;;;;;;5.63;78.91;98688.88;5071614;28;20064;-53
2020/12/05 06:53:19;;;;;;;3.08;0.30;;;;;;;5.61;78.71;98695.91;5092678;28;20036;-48
2020/12/05 06:55:49;;;;;;;1.48;0.40;;;;;;;5.63;78.82;98699.06;5078411;28;20494;-52
2020/12/05 06:58:25;;;;;;;0.50;0.30;;;;;;;5.64;78.53;98695.94;5088787;28;20486;-49
2020/12/05 07:00:52;;;;;;;1.10;0.50;;;;;;;5.67;79.02;98697.19;5093452;28;20044;-48
2020/12/05 07:03:29;;;;;;;0.70;0.30;;;;;;;5.69;78.54;98703.13;5083107;28;20044;-49
2020/12/05 07:05:57;;;;;;;6.95;0.70;;;;;;;5.68;78.78;98696.03;5087716;28;20040;-50
2020/12/05 07:08:23;;;;;;;2.60;0.50;;;;;;;5.67;78.57;98705.41;5092353;28;20132;-50
2020/12/05 07:10:53;;;;;;;3.20;0.70;;;;;;;5.69;78.69;98708.63;5092820;28;20428;-48
2020/12/05 07:13:25;;;;;;;1.27;0.30;;;;;;;5.68;78.43;98712.50;5091177;28;20371;-50
2020/12/05 07:16:07;;;;;;;;;;;;;;;5.67;78.92;98710.91;5092699;28;20478;-51
2020/12/05 07:18:34;;;;;;;8.50;1.00;;;;;;;5.69;78.92;98712.16;5090782;28;19973;-50
2020/12/05 07:21:00;;;;;;;2.97;2.15;;;;;;;5.69;79.02;98703.13;5092007;28;20302;-50
2020/12/05 07:23:26;;;;;;;2.63;1.08;;;;;;;5.69;79.14;98714.91;5088248;28;20098;-49
2020/12/05 07:25:52;;;;;;;3.70;0.32;;;;;;;5.71;78.85;98714.53;5063068;28;20043;-51
2020/12/05 07:28:19;;;;;;;2.92;0.40;;;;;;;5.73;78.56;98725.94;5082394;28;20045;-54
2020/12/05 07:30:45;;;;;;;6.43;0.70;;;;;;;5.73;78.46;98728.69;5096289;28;20130;-49
2020/12/05 07:33:13;;;;;;;4.72;0.75;;;;;;;5.75;78.61;98740.09;5094973;28;20383;-53
2020/12/05 07:35:39;;;;;;;2.30;0.40;;;;;;;5.75;78.51;98743.63;5091432;28;20105;-48
2020/12/05 07:38:15;;;;;;;1.85;0.60;;;;;;;5.76;78.38;98741.69;5076860;28;20465;-49
2020/12/05 07:40:42;;;;;;;3.13;1.05;;;;;;;5.78;78.44;98756.66;5089535;28;20504;-51
2020/12/05 07:43:19;;;;;;;1.95;0.57;;;;;;;5.76;78.60;98749.94;5077862;28;20089;-50
2020/12/05 07:45:50;;;;;;;4.25;0.47;;;;;;;5.76;78.65;98771.88;5093054;28;20044;-49
2020/12/05 07:48:19;;;;;;;2.92;0.50;;;;;;;5.78;78.44;98777.81;5094726;28;20089;-48
2020/12/05 07:50:48;;;;;;;3.75;0.60;;;;;;;5.80;78.26;98776.28;5067225;28;20779;-50
2020/12/05 07:53:41;;;;;;;2.67;0.40;;;;;;;5.82;78.50;98781.44;5085587;28;20127;-50
2020/12/05 07:56:22;;;;;;;3.45;1.35;;;;;;;5.82;78.24;98797.91;5088463;28;20036;-52
2020/12/05 07:58:54;;;;;;;4.05;0.63;;;;;;;5.80;78.30;98805.72;5080817;28;20094;-49
2020/12/05 08:01:41;;;;;;;4.85;0.82;;;;;;;5.78;78.37;98797.03;5084622;28;20067;-49
2020/12/05 08:04:35;;;;;;;1.92;0.40;;;;;;;5.77;78.45;98809.19;5087031;28;20075;-50
2020/12/05 08:07:02;;;;;;;4.68;0.60;;;;;;;5.75;78.45;98816.97;5076333;28;20124;-49
2020/12/05 08:09:38;;;;;;;4.90;0.82;;;;;;;5.74;78.67;98809.91;5080781;28;20104;-50
2020/12/05 08:12:11;;;;;;;5.68;0.52;;;;;;;5.69;78.69;98824.72;5062033;28;20129;-50
2020/12/05 08:14:42;;;;;;;1.80;0.68;;;;;;;5.68;78.84;98827.81;5095539;28;20075;-48
2020/12/05 08:17:13;;;;;;;5.30;0.90;;;;;;;5.69;79.09;98835.69;5093471;28;20383;-49
2020/12/05 08:19:42;;;;;;;3.95;1.25;;;;;;;5.70;78.98;98839.22;5094731;28;20067;-50
2020/12/05 08:22:09;;;;;;;4.07;1.67;;;;;;;5.75;79.08;98841.69;5095528;28;20084;-50
2020/12/05 08:24:50;;;;;;;4.20;0.95;;;;;;;5.73;78.89;98853.03;5076738;28;20048;-49
2020/12/05 08:27:19;;;;;;;1.83;0.63;;;;;;;5.75;79.38;98849.91;5057931;28;20406;-51
2020/12/05 08:29:47;;;;;;;4.55;1.33;;;;;;;5.78;79.09;98854.69;5087810;28;20086;-52
2020/12/05 08:32:21;;;;;;;2.80;0.50;;;;;;;5.78;79.32;98855.50;5074215;28;20032;-49
2020/12/05 08:34:49;;;;;;;7.15;0.70;;;;;;;5.79;79.10;98857.09;5077783;28;20086;-48
2020/12/05 08:37:25;;;;;;;5.07;0.75;;;;;;;5.81;79.04;98870.44;5078147;28;20044;-53
2020/12/05 08:39:54;;;;;;;2.88;0.60;;;;;;;5.83;79.30;98868.13;5095390;28;20139;-50
2020/12/05 08:42:20;;;;;;;4.95;0.52;;;;;;;5.84;79.03;98880.72;5096055;28;20131;-51
2020/12/05 08:44:48;;;;;;;1.02;0.40;;;;;;;5.83;78.95;98868.13;5088904;28;20083;-54
2020/12/05 08:47:14;;;;;;;6.15;2.10;;;;;;;5.81;79.22;98876.75;5079184;28;20436;-54
2020/12/05 08:49:43;;;;;;;2.42;0.73;;;;;;;5.79;79.46;98894.72;5091850;28;20111;-50
2020/12/05 08:52:10;;;;;;;4.43;0.90;;;;;;;5.79;79.38;98890.03;5087896;28;20037;-54
2020/12/05 08:54:51;;;;;;;5.68;1.33;;;;;;;5.77;79.44;98891.56;5075421;28;20040;-51
2020/12/05 08:57:19;;;;;;;1.77;1.20;;;;;;;5.79;79.60;98895.53;5090972;28;20082;-50
2020/12/05 08:59:46;;;;;;;5.45;0.95;;;;;;;5.79;79.41;98909.25;5093449;28;20040;-48
2020/12/05 09:02:17;;;;;;;6.68;1.38;;;;;;;5.80;79.62;98915.56;5083444;28;20080;-48
2020/12/05 09:04:43;;;;;;;4.23;0.97;;;;;;;5.82;79.66;98921.47;5077219;28;20041;-51
2020/12/05 09:07:14;;;;;;;4.97;0.75;;;;;;;5.82;79.50;98921.47;5094511;28;20040;-49
2020/12/05 09:09:42;;;;;;;5.43;1.05;;;;;;;5.81;79.88;98917.13;5092560;28;20075;-48
2020/12/05 09:12:11;;;;;;;3.75;1.00;;;;;;;5.80;79.62;98938.28;5087314;28;20044;-50
2020/12/05 09:14:39;;;;;;;2.85;1.27;;;;;;;5.79;79.79;98939.47;5094202;28;20071;-51
2020/12/05 09:17:24;;;;;;;3.00;0.52;;;;;;;5.79;79.61;98944.16;5094085;28;20036;-47
2020/12/05 09:19:52;;;;;;;5.25;0.70;;;;;;;5.79;79.68;98944.16;5073340;28;20479;-49
2020/12/05 09:22:32;;;;;;;4.53;0.85;;;;;;;5.77;79.65;98951.97;5089557;28;20123;-51
2020/12/05 09:25:00;;;;;;;6.72;0.93;;;;;;;5.77;80.31;98952.72;5076490;28;20040;-51
2020/12/05 09:27:37;;;;;;;3.00;0.85;;;;;;;5.77;79.92;98951.97;5092991;28;20059;-54
2020/12/05 09:30:12;;;;;;;5.13;0.95;;;;;;;5.78;79.61;98961.78;5099970;28;20047;-55
2020/12/05 09:32:43;;;;;;;1.00;0.70;;;;;;;5.76;79.91;98964.09;5099719;28;20044;-51
2020/12/05 09:35:12;;;;;;;2.35;0.75;;;;;;;5.77;79.91;98973.94;5093468;28;20429;-49
2020/12/05 09:37:39;;;;;;;6.20;1.33;;;;;;;5.75;80.01;98962.47;5074938;28;20431;-51
2020/12/05 09:40:07;;;;;;;6.25;1.30;;;;;;;5.74;80.17;98972.69;5087892;28;20094;-50
2020/12/05 09:42:34;;;;;;;3.67;1.17;;;;;;;5.77;79.84;98984.91;5114668;28;20068;-53
2020/12/05 09:45:00;;;;;;;1.83;0.82;;;;;;;5.80;79.90;98989.69;5108988;28;20111;-50
2020/12/05 09:47:26;;;;;;;5.95;1.33;;;;;;;5.81;80.01;98991.28;5093915;28;20070;-50
2020/12/05 09:49:53;;;;;;;4.18;1.08;;;;;;;5.82;79.79;98992.88;5093232;28;20044;-50
2020/12/05 09:52:19;;;;;;;5.65;1.70;;;;;;;5.82;79.70;98988.19;5093681;28;20086;-50
2020/12/05 09:54:45;;;;;;;5.55;1.15;;;;;;;5.84;79.71;99004.28;5094382;28;20394;-50
2020/12/05 09:57:12;;;;;;;6.35;1.90;;;;;;;5.85;79.85;99000.44;5095561;28;20055;-51
2020/12/05 09:59:38;;;;;;;4.57;1.25;;;;;;;5.85;79.54;99008.69;5084113;28;20068;-49
2020/12/05 10:02:05;;;;;;;7.15;1.38;;;;;;;5.85;79.66;99003.19;5073855;28;20044;-51
2020/12/05 10:04:32;;;;;;;28.58;14.73;;;;;;;5.84;79.70;99009.78;5073417;28;20099;-49
2020/12/05 10:06:58;;;;;;;14.23;6.47;;;;;;;5.86;79.62;99010.25;5073645;28;20074;-49
2020/12/05 10:09:25;;;;;;;3.63;2.08;;;;;;;5.89;79.66;99017.78;5073242;28;20045;-51
2020/12/05 10:11:52;;;;;;;6.32;1.60;;;;;;;5.90;79.67;99028.44;5073292;28;20053;-50
2020/12/05 10:14:18;;;;;;;5.43;1.27;;;;;;;5.91;79.66;99027.25;5076863;28;20035;-50
2020/12/05 10:16:44;;;;;;;3.95;1.23;;;;;;;5.92;79.80;99022.56;5081704;28;20111;-51
2020/12/05 10:19:11;;;;;;;9.02;1.40;;;;;;;5.92;79.49;99028.06;5090142;28;20072;-52
2020/12/05 10:21:37;;;;;;;6.25;1.52;;;;;;;5.96;79.52;99037.16;5077647;28;20074;-55
2020/12/05 10:24:03;;;;;;;10.30;3.00;;;;;;;5.97;79.57;99044.28;5079907;28;20537;-53
2020/12/05 10:26:30;;;;;;;3.63;1.40;;;;;;;5.98;79.62;99054.13;5090619;28;20179;-53
2020/12/05 10:28:56;;;;;;;6.32;1.40;;;;;;;5.99;79.36;99052.94;5098794;28;20039;-53
2020/12/05 10:31:22;;;;;;;4.50;1.25;;;;;;;5.99;79.43;99042.75;5090735;28;20382;-51
2020/12/05 10:33:49;;;;;;;6.75;1.38;;;;;;;6.01;79.51;99056.16;5090042;28;20390;-52
2020/12/05 10:36:19;;;;;;;4.68;1.60;;;;;;;6.04;79.37;99066.41;5071230;28;20037;-53
2020/12/05 10:38:46;;;;;;;3.00;1.50;;;;;;;6.08;79.84;99076.34;5070203;28;20037;-54
2020/12/05 10:41:13;;;;;;;9.52;1.67;;;;;;;6.15;79.73;99072.97;5094950;28;20051;-51
2020/12/05 10:43:40;;;;;;;8.38;1.38;;;;;;;6.25;79.83;99080.66;5076231;28;20398;-53
2020/12/05 10:46:07;;;;;;;11.10;1.60;;;;;;;6.36;79.46;99075.41;5089722;28;20048;-49
2020/12/05 10:48:33;;;;;;;12.75;1.70;;;;;;;6.43;79.47;99090.13;5075568;28;20432;-51
2020/12/05 10:51:00;;;;;;;10.40;3.28;;;;;;;6.49;79.56;99080.44;5087889;28;20047;-52
2020/12/05 10:53:30;;;;;;;7.68;1.65;;;;;;;6.55;79.62;99075.44;5071059;28;20048;-53
2020/12/05 10:56:00;;;;;;;9.88;2.28;;;;;;;6.59;79.53;99076.34;5085259;28;20047;-52
2020/12/05 10:58:26;;;;;;;12.50;2.92;;;;;;;6.62;79.49;99079.16;5086089;28;20043;-50
2020/12/05 11:00:52;;;;;;;10.80;3.38;;;;;;;6.64;79.46;99098.84;5088568;28;20547;-50
2020/12/05 11:03:19;;;;;;;7.80;1.83;;;;;;;6.63;79.85;99086.25;5088962;28;20048;-50
2020/12/05 11:05:45;;;;;;;6.13;1.52;;;;;;;6.65;79.66;99091.38;5094011;28;20040;-49
2020/12/05 11:08:11;;;;;;;6.43;1.80;;;;;;;6.70;79.61;99100.16;5072819;28;20040;-49
2020/12/05 11:10:37;;;;;;;16.10;2.40;;;;;;;6.75;79.12;99101.84;5092496;28;20039;-52
2020/12/05 11:13:04;;;;;;;10.45;1.98;;;;;;;6.81;79.09;99110.59;5091775;28;20059;-48
2020/12/05 11:15:30;;;;;;;16.10;2.47;;;;;;;6.84;79.30;99104.38;5088420;28;20044;-54
2020/12/05 11:17:56;;;;;;;14.23;2.20;;;;;;;6.89;79.19;99112.34;5103434;28;20049;-51
2020/12/05 11:20:23;;;;;;;9.43;1.85;;;;;;;6.89;79.00;99115.88;5086496;28;20383;-53
2020/12/05 11:22:53;;;;;;;4.70;1.20;;;;;;;6.85;78.72;99111.47;5072605;28;20043;-53
2020/12/05 11:25:20;;;;;;;4.10;1.20;;;;;;;6.78;78.54;99125.84;5073695;28;20036;-50
2020/12/05 11:27:46;;;;;;;3.88;0.98;;;;;;;6.72;78.16;99124.56;5091911;28;20075;-52
2020/12/05 11:30:13;;;;;;;9.98;1.88;;;;;;;6.70;77.69;99124.91;5076372;28;20090;-53
2020/12/05 11:32:40;;;;;;;9.02;1.58;;;;;;;6.74;77.67;99141.50;5089724;28;20070;-52
2020/12/05 11:35:06;;;;;;;5.07;0.90;;;;;;;6.70;77.30;99141.41;5085330;28;20048;-51
2020/12/05 11:37:33;;;;;;;2.80;0.80;;;;;;;6.70;77.47;99146.91;5074003;28;20124;-51
2020/12/05 11:40:00;;;;;;;5.20;1.20;;;;;;;6.67;77.18;99139.38;5073429;28;20075;-51
2020/12/05 11:42:32;;;;;;;7.70;1.33;;;;;;;6.65;77.48;99152.69;5065591;28;20451;-51
2020/12/05 11:45:02;;;;;;;5.18;1.40;;;;;;;6.59;77.61;99151.34;5088751;28;20036;-53
2020/12/05 11:47:29;;;;;;;6.72;1.05;;;;;;;6.58;77.50;99159.97;5085907;28;20052;-51
2020/12/05 11:49:55;;;;;;;7.50;1.50;;;;;;;6.57;77.79;99159.16;5086625;28;20491;-50